sensor_id;sensor_type;location;lat;lon;timestamp;pressure;altitude;pressure_sealevel;temperature;humidity
23635;BME280;11994;51.038;16.974;2023-02-03T00:01:00;100921.93;;;0.74;80.52
23635;BME280;11994;51.038;16.974;2023-02-03T00:03:26;100923.42;;;0.72;80.51
23635;BME280;11994;51.038;16.974;2023-02-03T00:05:51;100929.05;;;0.70;80.63
23635;BME280;11994;51.038;16.974;2023-02-03T00:08:17;100926.33;;;0.71;80.78
23635;BME280;11994;51.038;16.974;2023-02-03T00:10:44;100922.55;;;0.72;80.60
23635;BME280;11994;51.038;16.974;2023-02-03T00:13:10;100917.89;;;0.71;80.79
23635;BME280;11994;51.038;16.974;2023-02-03T00:15:35;100923.55;;;0.71;80.95
23635;BME280;11994;51.038;16.974;2023-02-03T00:18:00;100925.95;;;0.70;80.79
23635;BME280;11994;51.038;16.974;2023-02-03T00:20:26;100926.22;;;0.68;80.78
23635;BME280;11994;51.038;16.974;2023-02-03T00:22:51;100921.27;;;0.69;80.92
23635;BME280;11994;51.038;16.974;2023-02-03T00:25:17;100918.90;;;0.64;80.80
23635;BME280;11994;51.038;16.974;2023-02-03T00:27:43;100918.73;;;0.58;81.07
23635;BME280;11994;51.038;16.974;2023-02-03T00:30:11;100912.39;;;0.53;80.95
23635;BME280;11994;51.038;16.974;2023-02-03T00:32:37;100918.59;;;0.53;81.22
23635;BME280;11994;51.038;16.974;2023-02-03T00:35:03;100919.61;;;0.59;81.47
23635;BME280;11994;51.038;16.974;2023-02-03T00:37:28;100917.60;;;0.67;81.67
23635;BME280;11994;51.038;16.974;2023-02-03T00:39:54;100910.04;;;0.74;81.60
23635;BME280;11994;51.038;16.974;2023-02-03T00:42:19;100905.92;;;0.81;81.93
23635;BME280;11994;51.038;16.974;2023-02-03T00:44:44;100905.86;;;0.85;81.90
23635;BME280;11994;51.038;16.974;2023-02-03T00:47:10;100902.83;;;0.87;81.73
23635;BME280;11994;51.038;16.974;2023-02-03T00:49:35;100895.41;;;0.87;81.57
23635;BME280;11994;51.038;16.974;2023-02-03T00:52:00;100889.72;;;0.86;81.48
23635;BME280;11994;51.038;16.974;2023-02-03T00:54:26;100891.42;;;0.79;81.39
23635;BME280;11994;51.038;16.974;2023-02-03T00:56:51;100885.78;;;0.74;81.43
23635;BME280;11994;51.038;16.974;2023-02-03T00:59:16;100889.10;;;0.69;81.34
23635;BME280;11994;51.038;16.974;2023-02-03T01:01:42;100887.95;;;0.65;81.54
23635;BME280;11994;51.038;16.974;2023-02-03T01:04:07;100886.18;;;0.63;81.76
23635;BME280;11994;51.038;16.974;2023-02-03T01:06:32;100880.08;;;0.60;81.71
23635;BME280;11994;51.038;16.974;2023-02-03T01:09:00;100883.94;;;0.57;81.74
23635;BME280;11994;51.038;16.974;2023-02-03T01:11:26;100883.33;;;0.54;81.76
23635;BME280;11994;51.038;16.974;2023-02-03T01:13:53;100872.69;;;0.48;82.00
23635;BME280;11994;51.038;16.974;2023-02-03T01:16:20;100883.27;;;0.45;82.09
23635;BME280;11994;51.038;16.974;2023-02-03T01:18:47;100878.02;;;0.42;82.26
23635;BME280;11994;51.038;16.974;2023-02-03T01:21:18;100868.35;;;0.40;82.42
23635;BME280;11994;51.038;16.974;2023-02-03T01:23:45;100859.38;;;0.39;82.41
23635;BME280;11994;51.038;16.974;2023-02-03T01:26:13;100856.02;;;0.43;82.77
23635;BME280;11994;51.038;16.974;2023-02-03T01:28:39;100852.16;;;0.53;83.01
23635;BME280;11994;51.038;16.974;2023-02-03T01:31:14;100850.88;;;0.56;82.97
23635;BME280;11994;51.038;16.974;2023-02-03T01:33:40;100838.65;;;0.56;83.07
23635;BME280;11994;51.038;16.974;2023-02-03T01:36:07;100833.42;;;0.60;83.22
23635;BME280;11994;51.038;16.974;2023-02-03T01:38:34;100832.79;;;0.62;83.23
23635;BME280;11994;51.038;16.974;2023-02-03T01:40:59;100828.46;;;0.61;83.08
23635;BME280;11994;51.038;16.974;2023-02-03T01:43:30;100825.13;;;0.58;82.98
23635;BME280;11994;51.038;16.974;2023-02-03T01:45:57;100815.04;;;0.54;83.03
23635;BME280;11994;51.038;16.974;2023-02-03T01:48:23;100807.20;;;0.51;83.19
23635;BME280;11994;51.038;16.974;2023-02-03T01:50:49;100804.30;;;0.51;83.13
23635;BME280;11994;51.038;16.974;2023-02-03T01:53:14;100791.61;;;0.53;83.22
23635;BME280;11994;51.038;16.974;2023-02-03T01:55:41;100785.02;;;0.51;83.44
23635;BME280;11994;51.038;16.974;2023-02-03T01:58:14;100780.54;;;0.51;83.79
23635;BME280;11994;51.038;16.974;2023-02-03T02:00:40;100775.09;;;0.53;83.80
23635;BME280;11994;51.038;16.974;2023-02-03T02:03:07;100766.19;;;0.54;83.84
23635;BME280;11994;51.038;16.974;2023-02-03T02:05:37;100756.91;;;0.55;84.03
23635;BME280;11994;51.038;16.974;2023-02-03T02:08:06;100745.98;;;0.58;84.21
23635;BME280;11994;51.038;16.974;2023-02-03T02:10:32;100743.25;;;0.59;84.09
23635;BME280;11994;51.038;16.974;2023-02-03T02:12:59;100734.34;;;0.61;84.18
23635;BME280;11994;51.038;16.974;2023-02-03T02:18:43;100723.09;;;0.72;84.30
23635;BME280;11994;51.038;16.974;2023-02-03T02:21:20;100723.42;;;0.78;84.47
23635;BME280;11994;51.038;16.974;2023-02-03T02:26:37;100728.77;;;0.93;84.51
23635;BME280;11994;51.038;16.974;2023-02-03T02:35:39;100735.64;;;1.00;83.98
23635;BME280;11994;51.038;16.974;2023-02-03T02:41:28;100723.04;;;0.84;83.99
23635;BME280;11994;51.038;16.974;2023-02-03T02:43:40;100728.75;;;0.78;84.17
23635;BME280;11994;51.038;16.974;2023-02-03T02:46:23;100716.69;;;0.78;84.23
23635;BME280;11994;51.038;16.974;2023-02-03T02:51:37;100696.54;;;0.77;84.55
23635;BME280;11994;51.038;16.974;2023-02-03T02:54:06;100692.55;;;0.75;84.57
23635;BME280;11994;51.038;16.974;2023-02-03T02:56:35;100685.45;;;0.73;84.59
23635;BME280;11994;51.038;16.974;2023-02-03T02:59:02;100678.17;;;0.72;84.87
23635;BME280;11994;51.038;16.974;2023-02-03T03:01:29;100670.23;;;0.71;85.00
23635;BME280;11994;51.038;16.974;2023-02-03T03:03:55;100659.70;;;0.69;84.83
23635;BME280;11994;51.038;16.974;2023-02-03T03:06:26;100654.14;;;0.67;85.19
23635;BME280;11994;51.038;16.974;2023-02-03T03:09:02;100643.64;;;0.66;85.21
23635;BME280;11994;51.038;16.974;2023-02-03T03:11:34;100637.99;;;0.68;85.33
23635;BME280;11994;51.038;16.974;2023-02-03T03:14:03;100633.77;;;0.71;85.27
23635;BME280;11994;51.038;16.974;2023-02-03T03:16:32;100624.67;;;0.72;85.55
23635;BME280;11994;51.038;16.974;2023-02-03T03:19:09;100617.82;;;0.74;85.59
23635;BME280;11994;51.038;16.974;2023-02-03T03:21:51;100604.91;;;0.73;85.70
23635;BME280;11994;51.038;16.974;2023-02-03T03:24:22;100595.25;;;0.72;85.64
23635;BME280;11994;51.038;16.974;2023-02-03T03:26:56;100607.64;;;0.73;85.62
23635;BME280;11994;51.038;16.974;2023-02-03T03:29:40;100607.12;;;0.73;85.62
23635;BME280;11994;51.038;16.974;2023-02-03T03:32:06;100607.86;;;0.75;85.54
23635;BME280;11994;51.038;16.974;2023-02-03T03:34:32;100603.45;;;0.78;85.79
23635;BME280;11994;51.038;16.974;2023-02-03T03:37:11;100601.51;;;0.83;85.80
23635;BME280;11994;51.038;16.974;2023-02-03T03:42:20;100588.61;;;0.91;85.73
23635;BME280;11994;51.038;16.974;2023-02-03T03:45:16;100592.13;;;0.96;85.54
23635;BME280;11994;51.038;16.974;2023-02-03T03:50:49;100600.85;;;1.01;85.30
23635;BME280;11994;51.038;16.974;2023-02-03T03:53:17;100598.27;;;1.01;84.98
23635;BME280;11994;51.038;16.974;2023-02-03T03:55:47;100590.52;;;1.01;85.18
23635;BME280;11994;51.038;16.974;2023-02-03T03:58:17;100582.75;;;1.00;84.98
23635;BME280;11994;51.038;16.974;2023-02-03T04:00:44;100580.19;;;1.01;84.73
23635;BME280;11994;51.038;16.974;2023-02-03T04:03:13;100583.61;;;1.00;84.74
23635;BME280;11994;51.038;16.974;2023-02-03T04:05:40;100583.16;;;1.02;85.09
23635;BME280;11994;51.038;16.974;2023-02-03T04:08:05;100575.94;;;1.03;85.09
23635;BME280;11994;51.038;16.974;2023-02-03T04:10:36;100571.29;;;1.03;85.19
23635;BME280;11994;51.038;16.974;2023-02-03T04:13:03;100574.00;;;1.01;85.11
23635;BME280;11994;51.038;16.974;2023-02-03T04:15:29;100574.81;;;0.99;85.10
23635;BME280;11994;51.038;16.974;2023-02-03T04:17:55;100565.45;;;0.96;84.93
23635;BME280;11994;51.038;16.974;2023-02-03T04:20:22;100562.65;;;0.93;85.12
23635;BME280;11994;51.038;16.974;2023-02-03T04:22:48;100563.00;;;0.93;85.28
23635;BME280;11994;51.038;16.974;2023-02-03T04:25:14;100557.83;;;0.93;85.29
23635;BME280;11994;51.038;16.974;2023-02-03T04:27:39;100551.44;;;0.92;85.52
23635;BME280;11994;51.038;16.974;2023-02-03T04:30:05;100542.48;;;0.93;85.60
23635;BME280;11994;51.038;16.974;2023-02-03T04:32:31;100537.16;;;0.93;85.57
23635;BME280;11994;51.038;16.974;2023-02-03T04:34:57;100536.81;;;0.92;85.44
23635;BME280;11994;51.038;16.974;2023-02-03T04:37:23;100527.33;;;0.91;85.45
23635;BME280;11994;51.038;16.974;2023-02-03T04:39:51;100523.59;;;0.94;85.55
23635;BME280;11994;51.038;16.974;2023-02-03T04:42:17;100511.63;;;0.98;85.51
23635;BME280;11994;51.038;16.974;2023-02-03T04:44:42;100508.23;;;1.01;85.71
23635;BME280;11994;51.038;16.974;2023-02-03T04:47:08;100512.05;;;1.02;85.65
23635;BME280;11994;51.038;16.974;2023-02-03T04:49:33;100512.77;;;1.03;85.40
23635;BME280;11994;51.038;16.974;2023-02-03T04:51:59;100508.63;;;1.03;85.54
23635;BME280;11994;51.038;16.974;2023-02-03T04:54:24;100499.48;;;1.03;85.37
23635;BME280;11994;51.038;16.974;2023-02-03T04:56:49;100496.41;;;1.04;85.31
23635;BME280;11994;51.038;16.974;2023-02-03T04:59:15;100494.43;;;1.08;85.62
23635;BME280;11994;51.038;16.974;2023-02-03T05:01:40;100488.09;;;1.10;85.67
23635;BME280;11994;51.038;16.974;2023-02-03T05:04:05;100478.98;;;1.11;85.71
23635;BME280;11994;51.038;16.974;2023-02-03T05:06:31;100473.14;;;1.12;85.57
23635;BME280;11994;51.038;16.974;2023-02-03T05:08:57;100470.74;;;1.12;85.59
23635;BME280;11994;51.038;16.974;2023-02-03T05:11:23;100471.26;;;1.12;85.45
23635;BME280;11994;51.038;16.974;2023-02-03T05:13:49;100472.84;;;1.14;85.45
23635;BME280;11994;51.038;16.974;2023-02-03T05:16:15;100476.92;;;1.21;85.47
23635;BME280;11994;51.038;16.974;2023-02-03T05:18:40;100475.59;;;1.32;86.02
23635;BME280;11994;51.038;16.974;2023-02-03T05:21:06;100476.01;;;1.46;86.10
23635;BME280;11994;51.038;16.974;2023-02-03T05:23:31;100470.48;;;1.55;85.72
23635;BME280;11994;51.038;16.974;2023-02-03T05:25:56;100466.88;;;1.57;85.52
23635;BME280;11994;51.038;16.974;2023-02-03T05:28:22;100461.20;;;1.56;85.38
23635;BME280;11994;51.038;16.974;2023-02-03T05:30:47;100460.13;;;1.55;85.17
23635;BME280;11994;51.038;16.974;2023-02-03T05:33:12;100453.32;;;1.50;84.96
23635;BME280;11994;51.038;16.974;2023-02-03T05:35:38;100447.28;;;1.48;85.08
23635;BME280;11994;51.038;16.974;2023-02-03T05:38:03;100446.02;;;1.46;85.05
23635;BME280;11994;51.038;16.974;2023-02-03T05:40:29;100439.27;;;1.44;85.27
23635;BME280;11994;51.038;16.974;2023-02-03T05:43:13;100435.47;;;1.43;85.33
23635;BME280;11994;51.038;16.974;2023-02-03T05:45:39;100428.36;;;1.41;85.48
23635;BME280;11994;51.038;16.974;2023-02-03T05:48:04;100424.03;;;1.39;85.53
23635;BME280;11994;51.038;16.974;2023-02-03T05:50:32;100418.30;;;1.37;85.67
23635;BME280;11994;51.038;16.974;2023-02-03T05:53:01;100417.11;;;1.38;85.69
23635;BME280;11994;51.038;16.974;2023-02-03T05:55:28;100412.98;;;1.38;85.78
23635;BME280;11994;51.038;16.974;2023-02-03T05:57:54;100404.22;;;1.39;86.14
23635;BME280;11994;51.038;16.974;2023-02-03T06:00:20;100392.30;;;1.36;86.30
23635;BME280;11994;51.038;16.974;2023-02-03T06:02:59;100383.95;;;1.32;86.50
23635;BME280;11994;51.038;16.974;2023-02-03T06:05:27;100380.27;;;1.28;86.67
23635;BME280;11994;51.038;16.974;2023-02-03T06:07:53;100378.86;;;1.26;86.80
23635;BME280;11994;51.038;16.974;2023-02-03T06:10:19;100368.86;;;1.26;87.05
23635;BME280;11994;51.038;16.974;2023-02-03T06:12:45;100358.71;;;1.27;87.11
23635;BME280;11994;51.038;16.974;2023-02-03T06:15:11;100352.90;;;1.28;87.47
23635;BME280;11994;51.038;16.974;2023-02-03T06:17:36;100342.94;;;1.31;87.70
23635;BME280;11994;51.038;16.974;2023-02-03T06:20:04;100339.50;;;1.31;88.12
23635;BME280;11994;51.038;16.974;2023-02-03T06:22:30;100339.00;;;1.32;88.30
23635;BME280;11994;51.038;16.974;2023-02-03T06:24:56;100329.53;;;1.33;88.49
23635;BME280;11994;51.038;16.974;2023-02-03T06:27:21;100323.53;;;1.34;88.69
23635;BME280;11994;51.038;16.974;2023-02-03T06:29:46;100318.42;;;1.38;89.04
23635;BME280;11994;51.038;16.974;2023-02-03T06:32:12;100315.19;;;1.42;89.44
23635;BME280;11994;51.038;16.974;2023-02-03T06:34:37;100305.77;;;1.45;89.52
23635;BME280;11994;51.038;16.974;2023-02-03T06:37:03;100303.55;;;1.47;90.04
23635;BME280;11994;51.038;16.974;2023-02-03T06:39:28;100299.45;;;1.49;90.28
23635;BME280;11994;51.038;16.974;2023-02-03T06:41:53;100293.77;;;1.50;90.39
23635;BME280;11994;51.038;16.974;2023-02-03T06:44:20;100291.20;;;1.50;90.42
23635;BME280;11994;51.038;16.974;2023-02-03T06:46:46;100285.20;;;1.53;90.69
23635;BME280;11994;51.038;16.974;2023-02-03T06:49:11;100280.91;;;1.54;90.99
23635;BME280;11994;51.038;16.974;2023-02-03T06:51:38;100270.58;;;1.54;91.25
23635;BME280;11994;51.038;16.974;2023-02-03T06:54:04;100259.52;;;1.52;91.70
23635;BME280;11994;51.038;16.974;2023-02-03T06:56:29;100251.05;;;1.50;91.96
23635;BME280;11994;51.038;16.974;2023-02-03T06:58:55;100243.13;;;1.50;92.16
23635;BME280;11994;51.038;16.974;2023-02-03T07:01:23;100243.31;;;1.51;92.19
23635;BME280;11994;51.038;16.974;2023-02-03T07:03:50;100234.19;;;1.51;92.16
23635;BME280;11994;51.038;16.974;2023-02-03T07:06:16;100225.91;;;1.52;92.53
23635;BME280;11994;51.038;16.974;2023-02-03T07:08:42;100220.05;;;1.51;92.80
23635;BME280;11994;51.038;16.974;2023-02-03T07:11:08;100209.36;;;1.50;93.07
23635;BME280;11994;51.038;16.974;2023-02-03T07:13:33;100212.30;;;1.50;92.95
23635;BME280;11994;51.038;16.974;2023-02-03T07:15:59;100206.45;;;1.52;93.01
23635;BME280;11994;51.038;16.974;2023-02-03T07:18:24;100208.39;;;1.55;93.16
23635;BME280;11994;51.038;16.974;2023-02-03T07:20:51;100197.89;;;1.55;93.39
23635;BME280;11994;51.038;16.974;2023-02-03T07:23:16;100192.37;;;1.55;93.77
23635;BME280;11994;51.038;16.974;2023-02-03T07:25:42;100182.20;;;1.54;93.90
23635;BME280;11994;51.038;16.974;2023-02-03T07:28:08;100177.86;;;1.53;94.18
23635;BME280;11994;51.038;16.974;2023-02-03T07:30:33;100163.58;;;1.54;94.44
23635;BME280;11994;51.038;16.974;2023-02-03T07:32:58;100159.11;;;1.54;94.84
23635;BME280;11994;51.038;16.974;2023-02-03T07:35:24;100152.04;;;1.54;94.96
23635;BME280;11994;51.038;16.974;2023-02-03T07:37:50;100148.24;;;1.54;94.75
23635;BME280;11994;51.038;16.974;2023-02-03T07:40:15;100146.67;;;1.53;94.56
23635;BME280;11994;51.038;16.974;2023-02-03T07:42:42;100143.77;;;1.54;94.70
23635;BME280;11994;51.038;16.974;2023-02-03T07:45:08;100135.70;;;1.56;94.54
23635;BME280;11994;51.038;16.974;2023-02-03T07:47:34;100127.27;;;1.57;94.88
23635;BME280;11994;51.038;16.974;2023-02-03T07:49:59;100112.44;;;1.57;94.93
23635;BME280;11994;51.038;16.974;2023-02-03T07:52:24;100100.03;;;1.56;94.97
23635;BME280;11994;51.038;16.974;2023-02-03T07:54:50;100100.73;;;1.56;94.72
23635;BME280;11994;51.038;16.974;2023-02-03T07:57:15;100092.99;;;1.59;94.72
23635;BME280;11994;51.038;16.974;2023-02-03T07:59:40;100079.40;;;1.61;94.91
23635;BME280;11994;51.038;16.974;2023-02-03T08:02:07;100065.96;;;1.61;95.45
23635;BME280;11994;51.038;16.974;2023-02-03T08:04:33;100059.41;;;1.61;95.80
23635;BME280;11994;51.038;16.974;2023-02-03T08:06:58;100048.19;;;1.59;96.45
23635;BME280;11994;51.038;16.974;2023-02-03T08:09:23;100048.02;;;1.58;95.97
23635;BME280;11994;51.038;16.974;2023-02-03T08:11:49;100048.73;;;1.62;96.56
23635;BME280;11994;51.038;16.974;2023-02-03T08:14:14;100031.15;;;1.60;96.47
23635;BME280;11994;51.038;16.974;2023-02-03T08:16:39;100026.32;;;1.60;96.30
23635;BME280;11994;51.038;16.974;2023-02-03T08:19:05;100017.70;;;1.60;96.45
23635;BME280;11994;51.038;16.974;2023-02-03T08:21:30;100009.11;;;1.63;96.66
23635;BME280;11994;51.038;16.974;2023-02-03T08:23:56;100010.02;;;1.66;96.94
23635;BME280;11994;51.038;16.974;2023-02-03T08:26:21;100003.48;;;1.68;96.61
23635;BME280;11994;51.038;16.974;2023-02-03T08:28:47;99993.15;;;1.70;96.69
23635;BME280;11994;51.038;16.974;2023-02-03T08:31:14;99987.82;;;1.72;96.29
23635;BME280;11994;51.038;16.974;2023-02-03T08:33:39;99984.05;;;1.75;96.18
23635;BME280;11994;51.038;16.974;2023-02-03T08:36:05;99977.01;;;1.79;96.39
23635;BME280;11994;51.038;16.974;2023-02-03T08:38:31;99975.13;;;1.80;96.24
23635;BME280;11994;51.038;16.974;2023-02-03T08:40:56;99971.72;;;1.84;96.16
23635;BME280;11994;51.038;16.974;2023-02-03T08:43:22;99963.14;;;1.90;96.04
23635;BME280;11994;51.038;16.974;2023-02-03T08:45:47;99958.83;;;1.92;95.83
23635;BME280;11994;51.038;16.974;2023-02-03T08:48:13;99954.36;;;1.92;95.64
23635;BME280;11994;51.038;16.974;2023-02-03T08:50:43;99937.14;;;1.95;96.08
23635;BME280;11994;51.038;16.974;2023-02-03T08:53:09;99937.30;;;1.93;96.23
23635;BME280;11994;51.038;16.974;2023-02-03T08:55:38;99939.20;;;1.94;96.06
23635;BME280;11994;51.038;16.974;2023-02-03T08:58:03;99938.39;;;2.01;96.15
23635;BME280;11994;51.038;16.974;2023-02-03T09:00:28;99934.29;;;2.08;95.91
23635;BME280;11994;51.038;16.974;2023-02-03T09:02:54;99931.36;;;2.09;95.58
23635;BME280;11994;51.038;16.974;2023-02-03T09:05:19;99918.96;;;2.11;95.64
23635;BME280;11994;51.038;16.974;2023-02-03T09:07:45;99911.20;;;2.11;95.55
23635;BME280;11994;51.038;16.974;2023-02-03T09:10:10;99910.20;;;2.17;95.61
23635;BME280;11994;51.038;16.974;2023-02-03T09:12:35;99904.71;;;2.22;95.62
23635;BME280;11994;51.038;16.974;2023-02-03T09:15:01;99900.91;;;2.25;95.64
23635;BME280;11994;51.038;16.974;2023-02-03T09:17:26;99889.56;;;2.29;95.56
23635;BME280;11994;51.038;16.974;2023-02-03T09:19:52;99885.09;;;2.30;95.56
23635;BME280;11994;51.038;16.974;2023-02-03T09:22:17;99877.16;;;2.35;95.54
23635;BME280;11994;51.038;16.974;2023-02-03T09:24:43;99872.52;;;2.41;95.46
23635;BME280;11994;51.038;16.974;2023-02-03T09:27:08;99872.02;;;2.43;95.41
23635;BME280;11994;51.038;16.974;2023-02-03T09:29:33;99869.44;;;2.47;95.69
23635;BME280;11994;51.038;16.974;2023-02-03T09:31:59;99865.67;;;2.54;95.70
23635;BME280;11994;51.038;16.974;2023-02-03T09:34:26;99858.44;;;2.55;95.51
23635;BME280;11994;51.038;16.974;2023-02-03T09:36:52;99856.02;;;2.58;95.44
23635;BME280;11994;51.038;16.974;2023-02-03T09:39:17;99849.99;;;2.67;95.68
23635;BME280;11994;51.038;16.974;2023-02-03T09:46:53;99827.24;;;2.88;95.47
23635;BME280;11994;51.038;16.974;2023-02-03T09:52:02;99816.55;;;2.94;95.49
23635;BME280;11994;51.038;16.974;2023-02-03T09:54:38;99806.88;;;2.98;95.43
23635;BME280;11994;51.038;16.974;2023-02-03T09:57:19;99803.76;;;3.05;95.65
23635;BME280;11994;51.038;16.974;2023-02-03T09:59:45;99799.27;;;3.12;95.89
23635;BME280;11994;51.038;16.974;2023-02-03T10:02:30;99792.70;;;3.17;95.85
23635;BME280;11994;51.038;16.974;2023-02-03T10:05:03;99779.05;;;3.23;95.73
23635;BME280;11994;51.038;16.974;2023-02-03T10:07:33;99769.71;;;3.23;95.54
23635;BME280;11994;51.038;16.974;2023-02-03T10:13:22;99753.45;;;3.34;95.50
23635;BME280;11994;51.038;16.974;2023-02-03T10:16:01;99747.77;;;3.36;95.66
23635;BME280;11994;51.038;16.974;2023-02-03T10:18:36;99737.54;;;3.42;95.79
23635;BME280;11994;51.038;16.974;2023-02-03T10:23:57;99714.72;;;3.47;95.67
23635;BME280;11994;51.038;16.974;2023-02-03T10:26:26;99702.96;;;3.49;95.22
23635;BME280;11994;51.038;16.974;2023-02-03T10:28:57;99702.44;;;3.52;95.52
23635;BME280;11994;51.038;16.974;2023-02-03T10:31:25;99693.27;;;3.58;95.61
23635;BME280;11994;51.038;16.974;2023-02-03T10:34:12;99684.42;;;3.60;95.53
23635;BME280;11994;51.038;16.974;2023-02-03T10:41:59;99648.67;;;3.56;95.18
23635;BME280;11994;51.038;16.974;2023-02-03T10:44:30;99638.45;;;3.58;95.34
23635;BME280;11994;51.038;16.974;2023-02-03T10:46:57;99629.09;;;3.62;95.25
23635;BME280;11994;51.038;16.974;2023-02-03T10:49:25;99618.89;;;3.62;95.08
23635;BME280;11994;51.038;16.974;2023-02-03T10:51:53;99608.17;;;3.65;95.23
23635;BME280;11994;51.038;16.974;2023-02-03T10:56:52;99601.20;;;3.71;95.54
23635;BME280;11994;51.038;16.974;2023-02-03T10:59:28;99591.50;;;3.76;95.46
23635;BME280;11994;51.038;16.974;2023-02-03T11:01:55;99585.60;;;3.80;95.34
23635;BME280;11994;51.038;16.974;2023-02-03T11:04:39;99583.67;;;3.83;95.44
23635;BME280;11994;51.038;16.974;2023-02-03T11:07:06;99572.58;;;3.87;95.62
23635;BME280;11994;51.038;16.974;2023-02-03T11:09:45;99560.98;;;3.89;95.44
23635;BME280;11994;51.038;16.974;2023-02-03T11:12:16;99555.61;;;3.88;95.29
23635;BME280;11994;51.038;16.974;2023-02-03T11:14:52;99545.08;;;3.87;95.29
23635;BME280;11994;51.038;16.974;2023-02-03T11:17:20;99537.30;;;3.88;95.49
23635;BME280;11994;51.038;16.974;2023-02-03T11:19:52;99525.16;;;3.90;95.39
23635;BME280;11994;51.038;16.974;2023-02-03T11:22:35;99518.77;;;3.93;95.57
23635;BME280;11994;51.038;16.974;2023-02-03T11:25:04;99501.59;;;3.96;95.72
23635;BME280;11994;51.038;16.974;2023-02-03T11:27:40;99495.71;;;3.97;95.81
23635;BME280;11994;51.038;16.974;2023-02-03T11:30:13;99483.77;;;3.97;95.65
23635;BME280;11994;51.038;16.974;2023-02-03T11:32:41;99478.91;;;4.00;95.77
23635;BME280;11994;51.038;16.974;2023-02-03T11:35:27;99473.86;;;4.04;95.79
23635;BME280;11994;51.038;16.974;2023-02-03T11:37:58;99470.56;;;4.04;95.74
23635;BME280;11994;51.038;16.974;2023-02-03T11:40:31;99461.38;;;4.06;95.99
23635;BME280;11994;51.038;16.974;2023-02-03T11:43:13;99464.98;;;4.08;95.95
23635;BME280;11994;51.038;16.974;2023-02-03T11:45:44;99458.23;;;4.09;95.92
23635;BME280;11994;51.038;16.974;2023-02-03T11:48:25;99444.89;;;4.12;95.81
23635;BME280;11994;51.038;16.974;2023-02-03T11:51:10;99434.84;;;4.14;95.88
23635;BME280;11994;51.038;16.974;2023-02-03T11:53:52;99419.92;;;4.15;95.94
23635;BME280;11994;51.038;16.974;2023-02-03T11:59:09;99419.37;;;4.19;96.12
23635;BME280;11994;51.038;16.974;2023-02-03T12:04:33;99412.67;;;4.30;96.26
23635;BME280;11994;51.038;16.974;2023-02-03T12:12:35;99388.98;;;4.45;96.68
23635;BME280;11994;51.038;16.974;2023-02-03T12:15:23;99383.83;;;4.53;96.86
23635;BME280;11994;51.038;16.974;2023-02-03T12:21:06;99379.27;;;4.71;96.94
23635;BME280;11994;51.038;16.974;2023-02-03T12:29:31;99356.84;;;4.90;97.13
23635;BME280;11994;51.038;16.974;2023-02-03T12:32:13;99351.33;;;4.99;97.24
23635;BME280;11994;51.038;16.974;2023-02-03T12:34:52;99339.58;;;5.08;97.35
23635;BME280;11994;51.038;16.974;2023-02-03T12:37:32;99331.27;;;5.18;97.56
23635;BME280;11994;51.038;16.974;2023-02-03T12:40:03;99321.77;;;5.26;97.49
23635;BME280;11994;51.038;16.974;2023-02-03T12:42:40;99313.31;;;5.34;97.56
23635;BME280;11994;51.038;16.974;2023-02-03T12:45:12;99313.77;;;5.47;97.82
23635;BME280;11994;51.038;16.974;2023-02-03T12:47:57;99314.48;;;5.56;97.87
23635;BME280;11994;51.038;16.974;2023-02-03T12:50:29;99299.75;;;5.65;97.85
23635;BME280;11994;51.038;16.974;2023-02-03T12:53:18;99288.00;;;5.72;97.66
23635;BME280;11994;51.038;16.974;2023-02-03T12:55:58;99287.66;;;5.82;97.70
23635;BME280;11994;51.038;16.974;2023-02-03T12:58:36;99281.79;;;5.90;97.78
23635;BME280;11994;51.038;16.974;2023-02-03T13:06:42;99265.23;;;6.10;97.99
23635;BME280;11994;51.038;16.974;2023-02-03T13:09:39;99261.55;;;6.20;98.04
23635;BME280;11994;51.038;16.974;2023-02-03T13:14:47;99255.04;;;6.40;98.09
23635;BME280;11994;51.038;16.974;2023-02-03T13:17:21;99255.25;;;6.46;98.10
23635;BME280;11994;51.038;16.974;2023-02-03T13:20:16;99250.11;;;6.50;97.99
23635;BME280;11994;51.038;16.974;2023-02-03T13:22:43;99249.77;;;6.58;98.23
23635;BME280;11994;51.038;16.974;2023-02-03T13:31:23;99264.94;;;6.70;98.22
23635;BME280;11994;51.038;16.974;2023-02-03T13:45:30;99272.01;;;6.86;98.63
23635;BME280;11994;51.038;16.974;2023-02-03T13:48:29;99295.20;;;6.91;98.65
23635;BME280;11994;51.038;16.974;2023-02-03T13:51:15;99275.54;;;6.99;98.73
23635;BME280;11994;51.038;16.974;2023-02-03T13:53:43;99277.17;;;7.02;98.45
23635;BME280;11994;51.038;16.974;2023-02-03T13:56:20;99275.42;;;7.03;98.38
23635;BME280;11994;51.038;16.974;2023-02-03T13:59:46;99274.54;;;7.04;98.15
23635;BME280;11994;51.038;16.974;2023-02-03T14:01:47;99288.92;;;7.06;97.93
23635;BME280;11994;51.038;16.974;2023-02-03T14:12:18;99335.69;;;6.98;97.29
23635;BME280;11994;51.038;16.974;2023-02-03T14:20:03;99326.58;;;6.94;96.80
23635;BME280;11994;51.038;16.974;2023-02-03T14:22:30;99322.97;;;6.92;96.73
23635;BME280;11994;51.038;16.974;2023-02-03T14:24:57;99316.74;;;6.91;96.68
23635;BME280;11994;51.038;16.974;2023-02-03T14:27:29;99324.23;;;6.90;96.36
23635;BME280;11994;51.038;16.974;2023-02-03T14:30:06;99334.31;;;6.90;96.12
23635;BME280;11994;51.038;16.974;2023-02-03T14:32:51;99335.58;;;6.88;95.72
23635;BME280;11994;51.038;16.974;2023-02-03T14:35:21;99334.12;;;6.84;95.59
23635;BME280;11994;51.038;16.974;2023-02-03T14:38:01;99339.94;;;6.80;95.46
23635;BME280;11994;51.038;16.974;2023-02-03T14:59:56;99370.13;;;6.74;94.44
23635;BME280;11994;51.038;16.974;2023-02-03T15:02:26;99365.66;;;6.72;94.04
23635;BME280;11994;51.038;16.974;2023-02-03T15:10:40;99377.77;;;6.74;93.67
23635;BME280;11994;51.038;16.974;2023-02-03T15:13:28;99379.30;;;6.76;93.60